Time;durP1;ratioP1;P1;durP2;ratioP2;P2;SDS_P1;SDS_P2;PMS_P1;PMS_P2;Temp;Humidity;BMP_temperature;BMP_pressure;BME280_temperature;BME280_humidity;BME280_pressure;Samples;Min_cycle;Max_cycle;Signal;HPM_P1;HPM_P2
2023/05/06 00:00:34;;;;;;;0.00;0.00;;;11.60;85.70;;;;;;4970866;28;20094;-68
2023/05/06 00:03:00;;;;;;;0.00;0.00;;;11.70;85.80;;;;;;4960606;28;20412;-68
2023/05/06 00:05:26;;;;;;;0.00;0.00;;;11.70;86.20;;;;;;4964640;28;20055;-68
2023/05/06 00:07:52;;;;;;;0.00;0.00;;;11.70;86.30;;;;;;4968030;28;20388;-67
2023/05/06 00:10:17;;;;;;;0.00;0.00;;;11.70;86.30;;;;;;4970724;28;20523;-68
2023/05/06 00:12:43;;;;;;;0.00;0.00;;;11.70;86.30;;;;;;4971110;28;20074;-68
2023/05/06 00:15:09;;;;;;;0.00;0.00;;;11.70;86.30;;;;;;4971176;28;20122;-68
2023/05/06 00:17:35;;;;;;;0.00;0.00;;;11.70;86.20;;;;;;4968905;28;20129;-68
2023/05/06 00:20:01;;;;;;;0.00;0.00;;;11.70;86.30;;;;;;4967720;28;20130;-68
2023/05/06 00:22:27;;;;;;;0.00;0.00;;;11.80;86.40;;;;;;4969395;28;20464;-68
2023/05/06 00:24:52;;;;;;;0.00;0.00;;;11.80;86.40;;;;;;4970431;28;20066;-69
2023/05/06 00:27:18;;;;;;;0.00;0.00;;;11.70;86.30;;;;;;4967661;28;20054;-68
2023/05/06 00:29:43;;;;;;;0.10;0.10;;;11.80;86.30;;;;;;4971053;28;20050;-68
2023/05/06 00:32:09;;;;;;;0.00;0.00;;;11.80;86.50;;;;;;4971694;28;20046;-68
2023/05/06 00:34:35;;;;;;;0.00;0.00;;;11.80;86.50;;;;;;4988739;28;20051;-68
2023/05/06 00:37:01;;;;;;;0.00;0.00;;;11.80;86.60;;;;;;4969319;28;20054;-68
2023/05/06 00:39:26;;;;;;;0.00;0.00;;;11.90;86.70;;;;;;4968824;28;20043;-68
2023/05/06 00:41:52;;;;;;;0.00;0.00;;;11.90;86.70;;;;;;4951666;28;20054;-67
2023/05/06 00:44:17;;;;;;;0.00;0.00;;;11.90;86.80;;;;;;4952397;28;20523;-67
2023/05/06 00:46:43;;;;;;;0.00;0.00;;;11.80;86.70;;;;;;4959293;28;20531;-67
2023/05/06 00:49:10;;;;;;;0.00;0.00;;;11.90;86.70;;;;;;4966423;28;20050;-67
2023/05/06 00:51:36;;;;;;;0.00;0.00;;;11.90;86.80;;;;;;4954432;28;20186;-67
2023/05/06 00:54:01;;;;;;;0.00;0.00;;;11.90;86.80;;;;;;4935351;28;20126;-67
2023/05/06 00:56:27;;;;;;;0.00;0.00;;;11.90;86.80;;;;;;4968907;28;20450;-67
2023/05/06 00:58:53;;;;;;;0.00;0.00;;;11.90;86.80;;;;;;4956900;28;20051;-67
2023/05/06 01:01:21;;;;;;;0.00;0.00;;;11.90;86.70;;;;;;4951081;28;20082;-67
2023/05/06 01:03:47;;;;;;;0.00;0.00;;;11.90;86.70;;;;;;4952010;28;20622;-67
2023/05/06 01:06:38;;;;;;;0.03;0.03;;;11.90;86.80;;;;;;4951419;28;20126;-67
2023/05/06 01:09:37;;;;;;;0.00;0.00;;;11.90;86.70;;;;;;4934145;29;20520;-67
2023/05/06 01:12:12;;;;;;;0.00;0.00;;;11.90;86.90;;;;;;4971574;28;20050;-67
2023/05/06 01:14:45;;;;;;;0.00;0.00;;;11.80;86.80;;;;;;4989736;28;20392;-67
2023/05/06 01:17:15;;;;;;;0.00;0.00;;;11.80;86.80;;;;;;4956881;28;20105;-67
2023/05/06 01:19:49;;;;;;;0.00;0.00;;;11.90;86.80;;;;;;4950973;28;20055;-67
2023/05/06 01:22:15;;;;;;;0.00;0.00;;;11.90;86.70;;;;;;4958819;28;20070;-67
2023/05/06 01:24:43;;;;;;;0.00;0.00;;;11.80;86.60;;;;;;4966629;28;20040;-67
2023/05/06 01:27:10;;;;;;;0.00;0.00;;;11.80;86.60;;;;;;4965481;28;20459;-67
2023/05/06 01:29:37;;;;;;;0.05;0.05;;;11.80;86.50;;;;;;4969437;28;20059;-68
2023/05/06 01:32:18;;;;;;;0.10;0.10;;;11.80;86.50;;;;;;4956061;28;20057;-67
2023/05/06 01:35:15;;;;;;;0.00;0.00;;;11.80;86.60;;;;;;4965955;28;20051;-67
2023/05/06 01:37:54;;;;;;;0.00;0.00;;;11.70;86.50;;;;;;4966858;28;20512;-67
2023/05/06 01:40:23;;;;;;;0.00;0.00;;;11.70;86.60;;;;;;4954223;28;20043;-67
2023/05/06 01:42:49;;;;;;;0.00;0.00;;;11.80;86.80;;;;;;4955696;28;20051;-67
2023/05/06 01:45:16;;;;;;;0.00;0.00;;;11.80;86.70;;;;;;4979783;28;20121;-67
2023/05/06 01:47:44;;;;;;;0.00;0.00;;;11.80;86.60;;;;;;4966907;28;20036;-69
2023/05/06 01:50:10;;;;;;;0.00;0.00;;;11.80;86.60;;;;;;4955330;28;20051;-67
2023/05/06 01:52:35;;;;;;;0.00;0.00;;;11.70;86.60;;;;;;4956649;28;20054;-68
2023/05/06 01:55:01;;;;;;;0.00;0.00;;;11.70;86.60;;;;;;4978628;28;20492;-67
2023/05/06 01:57:27;;;;;;;0.00;0.00;;;11.70;86.70;;;;;;4987282;28;20035;-67
2023/05/06 01:59:53;;;;;;;0.00;0.00;;;11.60;86.80;;;;;;4973014;28;20099;-67
2023/05/06 02:02:18;;;;;;;0.00;0.00;;;11.70;86.70;;;;;;4972101;28;20574;-67
2023/05/06 02:04:44;;;;;;;0.00;0.00;;;11.60;86.60;;;;;;4973568;28;20126;-67
2023/05/06 02:07:10;;;;;;;0.00;0.00;;;11.60;86.60;;;;;;4973351;28;20043;-67
2023/05/06 02:09:35;;;;;;;0.00;0.00;;;11.60;86.50;;;;;;4980511;28;20407;-67
2023/05/06 02:12:01;;;;;;;0.10;0.10;;;11.60;86.40;;;;;;4966849;28;20042;-67
2023/05/06 02:14:26;;;;;;;0.00;0.00;;;11.60;86.40;;;;;;4953863;28;20050;-67
2023/05/06 02:16:52;;;;;;;0.00;0.00;;;11.50;86.40;;;;;;4953678;28;20086;-67
2023/05/06 02:19:18;;;;;;;0.00;0.00;;;11.50;86.50;;;;;;4953689;29;20046;-67
2023/05/06 02:21:43;;;;;;;0.00;0.00;;;11.50;86.50;;;;;;4966825;28;20505;-68
2023/05/06 02:24:09;;;;;;;0.00;0.00;;;11.40;86.60;;;;;;4981892;28;20049;-68
2023/05/06 02:26:34;;;;;;;0.00;0.00;;;11.40;86.60;;;;;;4992318;28;20050;-67
2023/05/06 02:29:00;;;;;;;0.00;0.00;;;11.40;86.50;;;;;;4992378;28;20058;-67
2023/05/06 02:31:25;;;;;;;0.00;0.00;;;11.30;86.40;;;;;;4966193;28;20504;-68
2023/05/06 02:33:51;;;;;;;0.00;0.00;;;11.30;86.40;;;;;;4953777;28;20079;-68
2023/05/06 02:36:16;;;;;;;0.00;0.00;;;11.20;86.30;;;;;;4953785;29;20765;-67
2023/05/06 02:38:42;;;;;;;0.00;0.00;;;11.20;86.50;;;;;;4962548;28;20507;-68
2023/05/06 02:41:08;;;;;;;0.00;0.00;;;11.20;86.50;;;;;;4970253;28;20049;-68
2023/05/06 02:43:33;;;;;;;0.00;0.00;;;11.20;86.50;;;;;;4973644;28;20053;-67
2023/05/06 02:45:59;;;;;;;0.00;0.00;;;11.20;86.60;;;;;;4977434;28;20381;-68
2023/05/06 02:48:24;;;;;;;0.00;0.00;;;11.20;86.60;;;;;;4984840;28;20055;-68
2023/05/06 02:50:50;;;;;;;0.00;0.00;;;11.20;86.80;;;;;;4964021;28;20069;-68
2023/05/06 02:53:16;;;;;;;0.00;0.00;;;11.20;86.80;;;;;;4955493;28;20039;-67
2023/05/06 02:55:41;;;;;;;0.00;0.00;;;11.20;86.70;;;;;;4953411;28;20074;-68
2023/05/06 02:58:07;;;;;;;0.08;0.08;;;11.10;86.70;;;;;;4953432;28;20126;-68
2023/05/06 03:00:33;;;;;;;0.00;0.00;;;11.20;86.70;;;;;;4953878;28;20070;-67
2023/05/06 03:02:58;;;;;;;0.00;0.00;;;11.10;86.70;;;;;;4968741;28;20495;-67
2023/05/06 03:05:24;;;;;;;0.00;0.00;;;11.20;86.90;;;;;;4968520;28;20039;-67
2023/05/06 03:07:50;;;;;;;0.00;0.00;;;11.10;86.90;;;;;;4972215;28;20054;-67
2023/05/06 03:10:15;;;;;;;0.00;0.00;;;11.10;86.80;;;;;;4970454;28;20043;-67
2023/05/06 03:12:41;;;;;;;0.00;0.00;;;11.10;86.80;;;;;;4976754;28;20043;-67
2023/05/06 03:15:07;;;;;;;0.03;0.03;;;11.20;86.90;;;;;;4952877;29;20500;-67
2023/05/06 03:17:32;;;;;;;0.00;0.00;;;11.10;86.90;;;;;;4951721;28;20051;-67
2023/05/06 03:19:58;;;;;;;0.00;0.00;;;11.10;86.80;;;;;;4961561;28;20038;-67
2023/05/06 03:22:23;;;;;;;0.00;0.00;;;11.10;86.80;;;;;;4953767;28;20051;-68
2023/05/06 03:24:49;;;;;;;0.00;0.00;;;11.10;86.80;;;;;;4951575;28;20054;-68
2023/05/06 03:27:14;;;;;;;0.00;0.00;;;11.10;86.90;;;;;;4952666;28;20126;-68
2023/05/06 03:29:40;;;;;;;0.00;0.00;;;11.10;86.90;;;;;;4956821;28;20098;-67
2023/05/06 03:32:06;;;;;;;0.00;0.00;;;11.10;86.80;;;;;;4970738;28;20411;-68
2023/05/06 03:34:31;;;;;;;0.00;0.00;;;11.10;86.80;;;;;;4971735;28;20101;-67
2023/05/06 03:36:57;;;;;;;0.00;0.00;;;11.10;86.90;;;;;;4972054;28;20055;-67
2023/05/06 03:39:23;;;;;;;0.00;0.00;;;11.10;87.10;;;;;;4963329;28;20039;-68
2023/05/06 03:41:49;;;;;;;0.00;0.00;;;11.10;87.10;;;;;;4957199;28;20484;-66
2023/05/06 03:44:14;;;;;;;0.00;0.00;;;11.10;87.10;;;;;;4953441;28;20047;-67
2023/05/06 03:46:40;;;;;;;0.00;0.00;;;11.10;87.10;;;;;;4952359;28;20519;-67
2023/05/06 03:49:06;;;;;;;0.00;0.00;;;11.10;87.10;;;;;;4960723;28;20035;-67
2023/05/06 03:51:32;;;;;;;0.00;0.00;;;11.20;87.20;;;;;;4952317;28;20043;-67
2023/05/06 03:53:58;;;;;;;0.00;0.00;;;11.20;87.20;;;;;;4952194;28;20039;-67
2023/05/06 03:56:24;;;;;;;0.00;0.00;;;11.20;87.20;;;;;;4971127;28;20701;-67
2023/05/06 03:58:50;;;;;;;0.00;0.00;;;11.30;87.20;;;;;;4970930;28;20045;-67
2023/05/06 04:01:17;;;;;;;0.00;0.00;;;11.30;87.20;;;;;;4968140;28;20401;-67
2023/05/06 04:03:43;;;;;;;0.00;0.00;;;11.20;87.10;;;;;;4985991;28;20049;-67
2023/05/06 04:06:09;;;;;;;0.00;0.00;;;11.30;87.20;;;;;;4961169;28;20047;-67
2023/05/06 04:08:35;;;;;;;0.00;0.00;;;11.30;87.30;;;;;;4971002;28;20069;-67
2023/05/06 04:11:07;;;;;;;0.00;0.00;;;11.30;87.20;;;;;;4952961;28;20059;-67
2023/05/06 04:13:33;;;;;;;0.00;0.00;;;11.30;87.30;;;;;;4951747;28;20047;-66
2023/05/06 04:16:00;;;;;;;0.00;0.00;;;11.40;87.40;;;;;;4965572;28;20045;-67
2023/05/06 04:18:26;;;;;;;0.00;0.00;;;11.40;87.30;;;;;;4969341;28;20082;-67
2023/05/06 04:20:51;;;;;;;0.00;0.00;;;11.30;87.20;;;;;;4958375;28;20089;-67
2023/05/06 04:23:17;;;;;;;0.00;0.00;;;11.40;87.60;;;;;;4970140;28;20135;-67
2023/05/06 04:25:47;;;;;;;0.03;0.03;;;11.30;87.90;;;;;;4960067;28;20039;-67
2023/05/06 04:28:13;;;;;;;0.00;0.00;;;11.30;87.80;;;;;;4968819;28;20047;-66
2023/05/06 04:30:39;;;;;;;0.00;0.00;;;11.30;87.60;;;;;;4955823;28;20125;-67
2023/05/06 04:33:06;;;;;;;0.00;0.00;;;11.30;87.80;;;;;;4953991;28;20114;-67
2023/05/06 04:35:32;;;;;;;0.00;0.00;;;11.40;87.90;;;;;;4968929;28;20035;-67
2023/05/06 04:37:58;;;;;;;0.00;0.00;;;11.50;88.20;;;;;;4970650;28;20102;-67
2023/05/06 04:40:25;;;;;;;0.00;0.00;;;11.50;88.30;;;;;;4951243;28;20505;-67
2023/05/06 04:42:51;;;;;;;0.00;0.00;;;11.60;88.30;;;;;;4955107;28;20051;-67
2023/05/06 04:45:16;;;;;;;0.00;0.00;;;11.60;88.30;;;;;;4967168;28;20046;-67
2023/05/06 04:47:42;;;;;;;0.00;0.00;;;11.60;88.30;;;;;;4970750;28;20400;-67
2023/05/06 04:50:08;;;;;;;0.00;0.00;;;11.70;88.60;;;;;;4959053;28;20050;-67
2023/05/06 04:52:35;;;;;;;0.00;0.00;;;11.70;88.80;;;;;;4951097;28;20122;-68
2023/05/06 04:55:01;;;;;;;0.40;0.40;;;11.70;88.80;;;;;;4953554;28;20045;-68
2023/05/06 04:57:26;;;;;;;0.00;0.00;;;11.70;88.70;;;;;;4952297;28;20047;-67
2023/05/06 04:59:52;;;;;;;0.03;0.03;;;11.80;88.50;;;;;;4958295;28;20039;-68
2023/05/06 05:02:17;;;;;;;0.00;0.00;;;11.70;88.40;;;;;;4975159;28;20109;-68
2023/05/06 05:04:43;;;;;;;0.00;0.00;;;11.70;88.40;;;;;;4975563;28;20042;-68
2023/05/06 05:07:08;;;;;;;0.00;0.00;;;11.80;88.50;;;;;;4969146;28;20039;-68
2023/05/06 05:09:34;;;;;;;0.00;0.00;;;11.90;88.50;;;;;;4967411;28;20101;-68
2023/05/06 05:12:01;;;;;;;0.00;0.00;;;11.90;88.40;;;;;;4959268;28;20074;-68
2023/05/06 05:14:26;;;;;;;0.00;0.00;;;11.90;88.40;;;;;;4971429;28;20039;-68
2023/05/06 05:16:52;;;;;;;0.00;0.00;;;11.90;88.50;;;;;;4973622;28;20046;-68
2023/05/06 05:19:17;;;;;;;0.00;0.00;;;12.00;88.60;;;;;;4971477;28;20140;-68
2023/05/06 05:21:43;;;;;;;0.00;0.00;;;12.00;88.60;;;;;;4960525;28;20047;-67
2023/05/06 05:24:09;;;;;;;0.00;0.00;;;12.10;88.70;;;;;;4963576;28;20043;-67
2023/05/06 05:26:34;;;;;;;0.00;0.00;;;12.10;88.70;;;;;;4955903;28;20042;-67
2023/05/06 05:29:00;;;;;;;0.00;0.00;;;12.10;88.70;;;;;;4958342;28;20055;-68
2023/05/06 05:31:25;;;;;;;0.00;0.00;;;12.10;88.70;;;;;;4972544;28;20535;-68
2023/05/06 05:33:51;;;;;;;0.00;0.00;;;12.20;88.70;;;;;;4963279;28;20038;-67
2023/05/06 05:36:17;;;;;;;0.00;0.00;;;12.20;88.80;;;;;;4972809;28;20165;-67
2023/05/06 05:38:42;;;;;;;0.00;0.00;;;12.20;88.80;;;;;;4961907;28;20109;-67
2023/05/06 05:41:08;;;;;;;0.00;0.00;;;12.30;88.70;;;;;;4968933;28;20427;-67
2023/05/06 05:43:33;;;;;;;0.00;0.00;;;12.30;88.50;;;;;;4970052;28;20039;-67
2023/05/06 05:45:59;;;;;;;0.00;0.00;;;12.30;88.60;;;;;;4972914;28;20062;-67
2023/05/06 05:48:25;;;;;;;0.00;0.00;;;12.30;88.50;;;;;;4974896;28;20042;-67
2023/05/06 05:50:50;;;;;;;0.00;0.00;;;12.30;88.60;;;;;;4965434;28;20073;-67
2023/05/06 05:53:16;;;;;;;0.00;0.00;;;12.40;88.70;;;;;;4958642;28;20160;-67
2023/05/06 05:55:41;;;;;;;0.10;0.10;;;12.40;88.60;;;;;;4963085;28;20047;-67
2023/05/06 05:58:09;;;;;;;0.00;0.00;;;12.50;88.70;;;;;;4954710;28;20078;-67
2023/05/06 06:00:35;;;;;;;0.00;0.00;;;12.50;88.60;;;;;;4970389;28;20043;-67
2023/05/06 06:03:00;;;;;;;0.00;0.00;;;12.50;88.50;;;;;;4973273;28;20054;-68
2023/05/06 06:05:26;;;;;;;0.00;0.00;;;12.60;88.60;;;;;;4967690;28;20046;-68
2023/05/06 06:07:52;;;;;;;0.00;0.00;;;12.60;88.70;;;;;;4963296;28;20130;-67
2023/05/06 06:10:17;;;;;;;0.00;0.00;;;12.60;88.60;;;;;;4970471;28;20045;-68
2023/05/06 06:12:43;;;;;;;0.00;0.00;;;12.70;88.80;;;;;;4971570;28;20043;-68
2023/05/06 06:15:09;;;;;;;0.00;0.00;;;12.70;88.80;;;;;;4970277;28;20082;-68
2023/05/06 06:17:35;;;;;;;0.00;0.00;;;12.80;88.80;;;;;;4970714;28;20038;-68
2023/05/06 06:20:00;;;;;;;0.00;0.00;;;12.90;88.80;;;;;;4970640;28;20046;-68
2023/05/06 06:22:26;;;;;;;0.00;0.00;;;12.80;88.80;;;;;;4970850;28;20043;-68
2023/05/06 06:24:55;;;;;;;0.00;0.00;;;12.90;88.80;;;;;;4970087;28;20061;-68
2023/05/06 06:27:20;;;;;;;0.00;0.00;;;12.90;88.70;;;;;;4970936;28;20046;-68
2023/05/06 06:29:49;;;;;;;0.00;0.00;;;12.90;88.70;;;;;;4970106;28;20053;-67
2023/05/06 06:32:15;;;;;;;0.00;0.00;;;12.90;88.70;;;;;;4970869;28;20101;-67
2023/05/06 06:34:41;;;;;;;0.00;0.00;;;13.00;88.70;;;;;;4970936;28;20039;-67
2023/05/06 06:37:09;;;;;;;0.00;0.00;;;13.00;88.70;;;;;;4970489;28;20057;-67
2023/05/06 06:39:35;;;;;;;0.00;0.00;;;13.00;88.60;;;;;;4970739;28;20129;-67
2023/05/06 06:42:03;;;;;;;0.00;0.00;;;13.00;88.50;;;;;;4970661;28;20181;-67
2023/05/06 06:44:29;;;;;;;0.00;0.00;;;13.10;88.60;;;;;;4970296;28;20081;-67
2023/05/06 06:46:54;;;;;;;0.00;0.00;;;13.10;88.60;;;;;;4970544;28;20186;-67
2023/05/06 06:49:20;;;;;;;0.00;0.00;;;13.10;88.80;;;;;;4970246;28;20130;-67
2023/05/06 06:51:46;;;;;;;0.00;0.00;;;13.20;88.80;;;;;;4969907;28;20041;-67
2023/05/06 06:54:11;;;;;;;0.00;0.00;;;13.20;88.80;;;;;;4969911;28;20035;-68
2023/05/06 06:56:37;;;;;;;0.00;0.00;;;13.30;88.80;;;;;;4969642;28;20097;-67
2023/05/06 06:59:02;;;;;;;0.00;0.00;;;13.30;88.90;;;;;;4967429;28;20051;-67
2023/05/06 07:01:28;;;;;;;0.00;0.00;;;13.40;88.90;;;;;;4969110;28;20058;-68
2023/05/06 07:03:53;;;;;;;0.00;0.00;;;13.40;89.00;;;;;;4968615;28;20046;-68
2023/05/06 07:06:19;;;;;;;0.00;0.00;;;13.50;88.90;;;;;;4969586;28;20381;-68
2023/05/06 07:08:44;;;;;;;0.00;0.00;;;13.60;88.90;;;;;;4969743;28;20055;-68
2023/05/06 07:11:11;;;;;;;0.00;0.00;;;13.60;88.80;;;;;;4970248;28;20795;-68
2023/05/06 07:13:36;;;;;;;1.00;0.50;;;13.70;88.80;;;;;;4968968;28;20047;-67
2023/05/06 07:16:02;;;;;;;0.00;0.00;;;13.70;88.90;;;;;;4969663;28;20055;-67
2023/05/06 07:18:27;;;;;;;0.00;0.00;;;13.70;88.90;;;;;;4977468;28;20704;-69
2023/05/06 07:20:53;;;;;;;0.00;0.00;;;13.80;88.80;;;;;;4961386;28;20085;-67
2023/05/06 07:23:19;;;;;;;0.00;0.00;;;13.80;88.70;;;;;;4977145;28;20055;-67
2023/05/06 07:25:44;;;;;;;0.00;0.00;;;13.80;88.60;;;;;;4972589;28;20051;-68
2023/05/06 07:28:10;;;;;;;0.00;0.00;;;13.90;88.70;;;;;;4975012;28;20069;-67
2023/05/06 07:30:39;;;;;;;0.00;0.00;;;14.00;88.70;;;;;;4968788;28;20186;-64
2023/05/06 07:33:04;;;;;;;0.00;0.00;;;14.00;88.60;;;;;;4964147;28;20051;-65
2023/05/06 07:35:30;;;;;;;0.00;0.00;;;14.00;88.50;;;;;;4977037;28;20047;-65
2023/05/06 07:37:56;;;;;;;0.00;0.00;;;14.10;88.30;;;;;;4963233;28;20042;-65
2023/05/06 07:40:21;;;;;;;0.00;0.00;;;14.10;88.20;;;;;;4971644;28;20043;-65
2023/05/06 07:42:47;;;;;;;0.00;0.00;;;14.10;88.00;;;;;;4959530;28;20047;-65
2023/05/06 07:45:14;;;;;;;0.00;0.00;;;14.20;87.90;;;;;;4965988;28;20047;-65
2023/05/06 07:47:39;;;;;;;0.00;0.00;;;14.30;87.80;;;;;;4959732;28;20051;-65
2023/05/06 07:50:06;;;;;;;0.00;0.00;;;14.30;87.70;;;;;;4970222;28;20125;-65
2023/05/06 07:52:31;;;;;;;0.88;0.75;;;14.40;87.40;;;;;;4962137;28;20118;-65
2023/05/06 07:54:57;;;;;;;0.00;0.00;;;14.40;87.40;;;;;;4952444;28;20173;-65
2023/05/06 07:57:22;;;;;;;0.00;0.00;;;14.50;87.30;;;;;;4958940;28;20034;-64
2023/05/06 07:59:49;;;;;;;0.10;0.10;;;14.60;87.20;;;;;;4952345;28;20039;-64
2023/05/06 08:02:15;;;;;;;0.00;0.00;;;14.60;86.80;;;;;;4957407;28;20170;-65
2023/05/06 08:04:41;;;;;;;0.08;0.08;;;14.60;86.80;;;;;;4965750;28;20523;-66
2023/05/06 08:07:07;;;;;;;0.00;0.00;;;14.70;86.80;;;;;;4957778;28;20043;-67
2023/05/06 08:09:33;;;;;;;0.00;0.00;;;14.80;86.80;;;;;;4951668;28;20142;-68
2023/05/06 08:11:58;;;;;;;0.00;0.00;;;14.90;86.70;;;;;;4969431;28;21415;-64
2023/05/06 08:14:27;;;;;;;0.00;0.00;;;14.90;86.20;;;;;;4970333;28;20133;-64
2023/05/06 08:16:53;;;;;;;0.00;0.00;;;15.00;86.10;;;;;;4971089;28;20105;-63
2023/05/06 08:19:20;;;;;;;0.20;0.20;;;15.00;86.20;;;;;;4983184;28;20783;-64
2023/05/06 08:21:47;;;;;;;0.00;0.00;;;15.00;86.30;;;;;;4972421;28;20085;-63
2023/05/06 08:24:13;;;;;;;0.00;0.00;;;15.10;86.60;;;;;;4970480;28;20078;-63
2023/05/06 08:26:39;;;;;;;0.00;0.00;;;15.10;86.60;;;;;;4972395;28;20387;-63
2023/05/06 08:29:06;;;;;;;0.00;0.00;;;15.10;86.50;;;;;;4973039;28;20062;-64
2023/05/06 08:31:31;;;;;;;0.00;0.00;;;15.20;86.50;;;;;;4970799;28;20058;-64
2023/05/06 08:33:57;;;;;;;0.00;0.00;;;15.20;86.30;;;;;;4971976;28;20046;-64
2023/05/06 08:36:22;;;;;;;0.00;0.00;;;15.30;85.90;;;;;;4970567;28;20055;-65
2023/05/06 08:38:49;;;;;;;0.00;0.00;;;15.30;85.70;;;;;;4971219;28;20635;-64
2023/05/06 08:41:18;;;;;;;0.10;0.10;;;15.40;85.80;;;;;;4990045;28;20046;-65
2023/05/06 08:43:46;;;;;;;0.00;0.00;;;15.50;85.60;;;;;;4988846;28;20517;-64
2023/05/06 08:46:12;;;;;;;0.10;0.10;;;15.60;85.60;;;;;;4988902;28;20046;-65
2023/05/06 08:48:38;;;;;;;0.00;0.00;;;15.60;85.50;;;;;;4989030;28;20074;-64
2023/05/06 08:51:04;;;;;;;0.00;0.00;;;15.80;85.50;;;;;;4989755;28;20046;-65
2023/05/06 08:53:32;;;;;;;0.00;0.00;;;15.80;85.30;;;;;;4989854;28;20049;-64
2023/05/06 08:56:05;;;;;;;0.00;0.00;;;15.90;85.10;;;;;;4989959;28;20133;-65
2023/05/06 08:58:36;;;;;;;0.00;0.00;;;15.90;84.60;;;;;;4988463;28;20050;-65
2023/05/06 09:01:02;;;;;;;0.00;0.00;;;15.90;84.80;;;;;;4980406;28;20053;-64
2023/05/06 09:03:28;;;;;;;0.00;0.00;;;16.00;84.70;;;;;;4969316;28;20482;-64
2023/05/06 09:05:55;;;;;;;0.00;0.00;;;16.10;84.60;;;;;;4969272;28;20074;-64
2023/05/06 09:08:21;;;;;;;0.08;0.08;;;16.10;84.30;;;;;;4970263;28;20053;-64
2023/05/06 09:10:47;;;;;;;0.00;0.00;;;16.20;84.70;;;;;;4979565;28;20046;-65
2023/05/06 09:13:14;;;;;;;0.00;0.00;;;16.30;84.60;;;;;;4977112;28;20050;-64
2023/05/06 09:15:41;;;;;;;0.00;0.00;;;16.40;84.50;;;;;;4970342;28;20154;-65
2023/05/06 09:18:06;;;;;;;0.00;0.00;;;16.40;84.40;;;;;;4969076;28;20770;-65
2023/05/06 09:20:40;;;;;;;0.00;0.00;;;16.40;84.00;;;;;;4969262;28;20090;-64
2023/05/06 09:23:08;;;;;;;0.10;0.10;;;16.50;83.80;;;;;;4985466;28;20050;-64
2023/05/06 09:25:35;;;;;;;0.00;0.00;;;16.60;83.90;;;;;;4970071;28;20069;-64
2023/05/06 09:28:05;;;;;;;0.00;0.00;;;16.60;83.60;;;;;;4968709;28;20526;-64
2023/05/06 09:30:31;;;;;;;0.00;0.00;;;16.80;83.70;;;;;;4968917;28;20108;-64
2023/05/06 09:32:56;;;;;;;0.10;0.10;;;16.90;83.80;;;;;;4977518;28;20080;-64
2023/05/06 09:35:43;;;;;;;0.10;0.10;;;17.00;83.60;;;;;;4989349;28;20097;-64
2023/05/06 09:38:09;;;;;;;0.00;0.00;;;17.00;82.80;;;;;;4988228;28;20050;-64
2023/05/06 09:40:35;;;;;;;0.00;0.00;;;17.10;82.50;;;;;;4978417;28;20073;-64
2023/05/06 09:43:02;;;;;;;0.70;0.65;;;17.20;82.50;;;;;;4970070;28;20098;-64
2023/05/06 09:45:28;;;;;;;0.00;0.00;;;17.30;81.70;;;;;;4973918;28;20521;-64
2023/05/06 09:47:55;;;;;;;0.00;0.00;;;17.40;81.60;;;;;;4989433;28;20092;-64
2023/05/06 09:50:21;;;;;;;0.10;0.10;;;17.50;80.70;;;;;;4989783;28;20062;-64
2023/05/06 09:52:49;;;;;;;0.00;0.00;;;17.60;80.60;;;;;;4989759;28;20045;-64
2023/05/06 09:55:17;;;;;;;0.00;0.00;;;17.60;80.40;;;;;;4988259;28;20373;-65
2023/05/06 09:57:43;;;;;;;0.00;0.00;;;17.70;81.00;;;;;;4989099;28;20050;-64
2023/05/06 10:00:10;;;;;;;0.00;0.00;;;17.90;80.70;;;;;;4990867;28;20565;-64
2023/05/06 10:02:38;;;;;;;0.00;0.00;;;17.90;80.80;;;;;;4982931;28;20050;-64
2023/05/06 10:05:07;;;;;;;0.00;0.00;;;17.90;80.10;;;;;;4974037;28;20039;-64
2023/05/06 10:07:34;;;;;;;0.00;0.00;;;17.90;79.70;;;;;;4974183;28;20125;-64
2023/05/06 10:10:01;;;;;;;0.00;0.00;;;18.00;80.40;;;;;;4974075;28;20054;-64
2023/05/06 10:12:28;;;;;;;0.35;0.35;;;18.00;80.20;;;;;;4973830;28;20039;-64
2023/05/06 10:14:54;;;;;;;0.00;0.00;;;17.90;80.20;;;;;;4972669;28;20070;-64
2023/05/06 10:17:24;;;;;;;0.00;0.00;;;17.80;79.90;;;;;;4973734;28;20047;-64
2023/05/06 10:19:54;;;;;;;0.10;0.10;;;17.80;80.20;;;;;;4972845;28;20153;-64
2023/05/06 10:22:40;;;;;;;0.00;0.00;;;17.70;80.00;;;;;;4980290;28;20057;-64
2023/05/06 10:25:15;;;;;;;0.08;0.08;;;17.70;80.50;;;;;;4972076;28;20139;-64
2023/05/06 10:27:43;;;;;;;0.22;0.22;;;17.60;79.70;;;;;;4972342;28;20120;-64
2023/05/06 10:30:10;;;;;;;0.00;0.00;;;17.60;80.70;;;;;;4964972;28;20059;-64
2023/05/06 10:32:40;;;;;;;0.00;0.00;;;17.60;80.80;;;;;;4963080;28;20088;-64
2023/05/06 10:35:24;;;;;;;0.15;0.15;;;17.70;80.60;;;;;;4971771;28;20061;-64
2023/05/06 10:37:51;;;;;;;0.00;0.00;;;17.60;80.30;;;;;;4972956;28;20411;-64
2023/05/06 10:40:16;;;;;;;0.00;0.00;;;17.70;80.20;;;;;;4972891;28;20101;-64
2023/05/06 10:42:42;;;;;;;0.00;0.00;;;17.80;80.00;;;;;;4990925;28;20046;-64
2023/05/06 10:45:09;;;;;;;0.00;0.00;;;17.90;79.40;;;;;;4972954;28;20138;-65
2023/05/06 10:47:53;;;;;;;0.00;0.00;;;18.10;78.90;;;;;;4972753;28;20047;-65
2023/05/06 10:50:20;;;;;;;0.00;0.00;;;18.20;79.10;;;;;;4971406;28;20050;-65
2023/05/06 10:52:47;;;;;;;0.00;0.00;;;18.30;78.30;;;;;;4965959;28;20039;-64
2023/05/06 10:55:26;;;;;;;0.00;0.00;;;18.50;78.40;;;;;;4969829;28;20098;-64
2023/05/06 10:58:02;;;;;;;0.10;0.10;;;18.50;77.20;;;;;;4972746;28;20105;-63
2023/05/06 11:00:33;;;;;;;0.00;0.00;;;18.70;78.20;;;;;;4972362;28;20504;-65
2023/05/06 11:03:06;;;;;;;0.00;0.00;;;18.80;76.00;;;;;;4972635;28;20058;-64
2023/05/06 11:05:47;;;;;;;0.00;0.00;;;19.00;77.40;;;;;;4972742;28;20066;-64
2023/05/06 11:08:14;;;;;;;18.17;1.02;;;19.00;75.60;;;;;;4972404;28;20074;-64
2023/05/06 11:10:40;;;;;;;0.03;0.03;;;19.00;75.40;;;;;;4972769;28;20531;-64
2023/05/06 11:13:21;;;;;;;0.00;0.00;;;19.00;75.90;;;;;;4975294;28;20647;-64
2023/05/06 11:15:51;;;;;;;0.00;0.00;;;19.00;76.30;;;;;;4991736;28;20054;-64
2023/05/06 11:18:26;;;;;;;0.38;0.38;;;19.00;74.70;;;;;;4991604;28;20052;-64
2023/05/06 11:21:01;;;;;;;0.13;0.13;;;19.10;75.70;;;;;;4988748;28;20564;-64
2023/05/06 11:23:53;;;;;;;0.00;0.00;;;19.20;75.50;;;;;;4991490;28;20047;-64
2023/05/06 11:26:18;;;;;;;0.10;0.10;;;19.30;73.00;;;;;;4990752;28;20050;-64
2023/05/06 11:28:47;;;;;;;0.00;0.00;;;19.50;73.40;;;;;;4991252;28;20066;-64
2023/05/06 11:31:14;;;;;;;0.00;0.00;;;19.60;72.00;;;;;;5006134;28;20136;-63
2023/05/06 11:33:53;;;;;;;0.20;0.20;;;19.70;73.80;;;;;;4970646;28;20042;-63
2023/05/06 11:36:20;;;;;;;0.00;0.00;;;19.70;72.00;;;;;;4975760;28;20104;-63
2023/05/06 11:38:51;;;;;;;0.28;0.28;;;19.80;72.50;;;;;;4965370;28;20427;-64
2023/05/06 11:41:18;;;;;;;0.10;0.10;;;19.80;72.80;;;;;;4965730;28;20074;-63
2023/05/06 11:43:51;;;;;;;0.00;0.00;;;19.70;70.80;;;;;;4964838;28;20086;-62
2023/05/06 11:46:21;;;;;;;0.20;0.20;;;19.60;67.40;;;;;;4974763;28;20085;-63
2023/05/06 11:48:49;;;;;;;0.08;0.08;;;19.60;70.70;;;;;;4971841;28;20058;-63
2023/05/06 11:51:15;;;;;;;0.00;0.00;;;19.80;69.70;;;;;;4969838;28;20047;-63
2023/05/06 11:53:40;;;;;;;0.00;0.00;;;19.70;69.90;;;;;;4966305;28;20864;-62
2023/05/06 11:56:06;;;;;;;0.00;0.00;;;19.70;71.00;;;;;;4963405;28;20046;-63
2023/05/06 11:58:32;;;;;;;1.55;0.75;;;19.70;69.70;;;;;;4976122;28;20053;-63
2023/05/06 12:01:00;;;;;;;0.00;0.00;;;19.70;68.40;;;;;;4962072;28;20046;-63
2023/05/06 12:03:27;;;;;;;0.00;0.00;;;19.80;69.80;;;;;;4973190;28;20042;-63
2023/05/06 12:05:54;;;;;;;0.28;0.28;;;19.80;68.80;;;;;;4965028;28;20539;-63
2023/05/06 12:08:25;;;;;;;0.00;0.00;;;20.00;70.20;;;;;;4965668;28;20043;-63
2023/05/06 12:10:53;;;;;;;0.00;0.00;;;20.10;70.90;;;;;;4958913;28;20042;-64
2023/05/06 12:13:19;;;;;;;0.15;0.15;;;20.20;70.70;;;;;;4970905;28;20061;-63
2023/05/06 12:15:46;;;;;;;0.00;0.00;;;20.20;68.20;;;;;;4961001;28;20058;-63
2023/05/06 12:18:12;;;;;;;0.00;0.00;;;20.30;70.00;;;;;;4960551;28;20062;-62
2023/05/06 12:20:37;;;;;;;0.93;0.85;;;20.20;68.70;;;;;;4964779;28;20423;-64
2023/05/06 12:23:08;;;;;;;0.00;0.00;;;20.20;66.70;;;;;;4964925;28;20050;-64
2023/05/06 12:25:33;;;;;;;1.90;1.20;;;20.40;68.90;;;;;;4966460;28;20101;-63
2023/05/06 12:27:59;;;;;;;0.00;0.00;;;20.50;69.60;;;;;;4966498;28;20528;-64
2023/05/06 12:30:30;;;;;;;0.00;0.00;;;20.50;67.30;;;;;;4967857;28;20066;-63
2023/05/06 12:33:00;;;;;;;0.00;0.00;;;20.50;65.20;;;;;;4958102;28;20047;-62
2023/05/06 12:35:27;;;;;;;0.00;0.00;;;20.60;67.30;;;;;;4957812;28;20042;-63
2023/05/06 12:37:54;;;;;;;0.00;0.00;;;20.70;66.80;;;;;;4980004;28;20257;-63
2023/05/06 12:40:19;;;;;;;0.00;0.00;;;20.80;67.90;;;;;;4987153;28;20042;-64
2023/05/06 12:42:55;;;;;;;0.00;0.00;;;21.00;67.50;;;;;;4967723;28;20096;-63
2023/05/06 12:45:21;;;;;;;0.00;0.00;;;21.00;65.60;;;;;;4970987;28;20047;-64
2023/05/06 12:47:58;;;;;;;0.10;0.10;;;21.10;66.20;;;;;;4973078;28;20046;-63